Time;durP1;ratioP1;P1;durP2;ratioP2;P2;SDS_P1;SDS_P2;PMS_P1;PMS_P2;Temp;Humidity;BMP_temperature;BMP_pressure;BME280_temperature;BME280_humidity;BME280_pressure;Samples;Min_cycle;Max_cycle;Signal;HPM_P1;HPM_P2
2023/06/17 00:00:58;;;;;;;4.47;3.83;;;;;;;;;;4385640;32;317477;-82
2023/06/17 00:03:25;;;;;;;9.10;3.78;;;;;;;;;;4377277;32;316757;-81
2023/06/17 00:05:53;;;;;;;5.18;4.30;;;;;;;;;;4385045;32;316753;-83
2023/06/17 00:08:22;;;;;;;7.25;4.20;;;;;;;;;;4386762;32;316874;-82
2023/06/17 00:10:49;;;;;;;10.60;4.12;;;;;;;;;;4373366;32;416311;-84
2023/06/17 00:13:19;;;;;;;5.65;4.70;;;;;;;;;;4386677;32;318066;-82
2023/06/17 00:15:47;;;;;;;9.68;3.53;;;;;;;;;;4378196;32;316687;-83
2023/06/17 00:18:19;;;;;;;7.30;3.85;;;;;;;;;;4390140;32;317152;-84
2023/06/17 00:20:47;;;;;;;5.37;3.87;;;;;;;;;;4378965;32;316775;-84
2023/06/17 00:23:14;;;;;;;12.65;3.87;;;;;;;;;;4389620;32;316770;-82
2023/06/17 00:25:43;;;;;;;4.55;4.15;;;;;;;;;;4378649;32;317749;-83
2023/06/17 00:28:10;;;;;;;5.53;3.67;;;;;;;;;;4389838;32;316969;-83
2023/06/17 00:30:38;;;;;;;4.93;4.00;;;;;;;;;;4378604;32;327467;-84
2023/06/17 00:33:05;;;;;;;6.00;4.07;;;;;;;;;;4390044;32;316854;-79
2023/06/17 00:35:33;;;;;;;7.53;4.47;;;;;;;;;;4378828;32;316927;-79
2023/06/17 00:38:01;;;;;;;9.45;4.55;;;;;;;;;;4388697;32;316893;-79
2023/06/17 00:40:28;;;;;;;7.12;4.10;;;;;;;;;;4379343;32;316816;-79
2023/06/17 00:42:57;;;;;;;12.50;4.00;;;;;;;;;;4388854;32;316836;-79
2023/06/17 00:45:25;;;;;;;5.20;3.62;;;;;;;;;;4375035;32;318166;-84
2023/06/17 00:47:52;;;;;;;13.13;3.58;;;;;;;;;;4389416;32;316819;-82
2023/06/17 00:50:20;;;;;;;6.68;3.78;;;;;;;;;;4387053;32;318025;-83
2023/06/17 00:52:51;;;;;;;3.78;3.35;;;;;;;;;;4379617;32;316903;-82
2023/06/17 00:55:19;;;;;;;7.97;3.72;;;;;;;;;;4387596;32;316850;-82
2023/06/17 00:57:47;;;;;;;5.78;3.75;;;;;;;;;;4378718;32;326877;-83
2023/06/17 01:00:17;;;;;;;6.37;3.53;;;;;;;;;;4388882;32;317005;-82
2023/06/17 01:02:46;;;;;;;4.60;3.70;;;;;;;;;;4378601;32;316575;-82
2023/06/17 01:05:16;;;;;;;5.07;3.50;;;;;;;;;;4387661;32;316772;-83
2023/06/17 01:07:52;;;;;;;10.55;3.85;;;;;;;;;;4378898;32;316822;-82
2023/06/17 01:10:25;;;;;;;6.05;3.70;;;;;;;;;;4387250;32;319440;-83
2023/06/17 01:12:55;;;;;;;5.28;3.78;;;;;;;;;;4375334;32;416168;-83
2023/06/17 01:15:24;;;;;;;12.23;3.78;;;;;;;;;;4388686;32;316666;-83
2023/06/17 01:17:54;;;;;;;3.92;3.45;;;;;;;;;;4375178;32;417240;-84
2023/06/17 01:20:23;;;;;;;5.82;3.25;;;;;;;;;;4388244;32;316734;-84
2023/06/17 01:22:54;;;;;;;6.18;3.28;;;;;;;;;;4376251;32;416142;-83
2023/06/17 01:25:29;;;;;;;4.97;3.10;;;;;;;;;;4388429;32;316830;-83
2023/06/17 01:27:59;;;;;;;6.60;3.08;;;;;;;;;;4375990;32;416327;-84
2023/06/17 01:30:29;;;;;;;4.62;2.87;;;;;;;;;;4376939;32;317112;-83
2023/06/17 01:32:58;;;;;;;6.40;3.10;;;;;;;;;;4388467;32;317221;-83
2023/06/17 01:35:29;;;;;;;4.53;3.65;;;;;;;;;;4376340;32;316870;-83
2023/06/17 01:38:01;;;;;;;7.20;3.50;;;;;;;;;;4389100;32;316755;-83
2023/06/17 01:40:31;;;;;;;5.35;3.72;;;;;;;;;;4374772;32;319427;-83
2023/06/17 01:43:01;;;;;;;4.37;3.42;;;;;;;;;;4388175;32;316787;-83
2023/06/17 01:45:30;;;;;;;5.30;3.40;;;;;;;;;;4374778;32;317521;-83
2023/06/17 01:47:57;;;;;;;10.73;3.12;;;;;;;;;;4388232;32;316715;-83
2023/06/17 01:50:25;;;;;;;8.07;2.42;;;;;;;;;;4374168;32;318166;-83
2023/06/17 01:52:52;;;;;;;3.65;2.58;;;;;;;;;;4388826;32;316640;-83
2023/06/17 01:55:20;;;;;;;8.02;2.25;;;;;;;;;;4387617;32;316968;-83
2023/06/17 01:57:49;;;;;;;7.05;2.75;;;;;;;;;;4376480;32;348799;-81
2023/06/17 02:00:17;;;;;;;3.72;2.80;;;;;;;;;;4388246;32;317127;-84
2023/06/17 02:02:45;;;;;;;3.67;2.70;;;;;;;;;;4377767;32;316663;-84
2023/06/17 02:05:12;;;;;;;3.15;2.33;;;;;;;;;;4388365;32;317068;-83
2023/06/17 02:07:40;;;;;;;7.30;3.03;;;;;;;;;;4378320;32;316631;-84
2023/06/17 02:10:08;;;;;;;3.15;2.22;;;;;;;;;;4388197;32;316794;-84
2023/06/17 02:12:35;;;;;;;6.95;2.40;;;;;;;;;;4378541;32;316779;-84
2023/06/17 02:15:05;;;;;;;9.15;2.40;;;;;;;;;;4385906;32;316642;-83
2023/06/17 02:17:35;;;;;;;4.87;1.52;;;;;;;;;;4378106;32;316773;-84
2023/06/17 02:20:04;;;;;;;4.03;1.40;;;;;;;;;;4387953;32;317038;-83
2023/06/17 02:22:31;;;;;;;5.32;1.45;;;;;;;;;;4377532;32;316822;-83
2023/06/17 02:24:58;;;;;;;1.65;1.30;;;;;;;;;;4388029;32;316772;-83
2023/06/17 02:27:26;;;;;;;5.80;1.50;;;;;;;;;;4378383;32;316743;-84
2023/06/17 02:29:53;;;;;;;5.10;1.98;;;;;;;;;;4385767;32;316934;-84
2023/06/17 02:32:22;;;;;;;3.87;1.15;;;;;;;;;;4388478;32;317054;-83
2023/06/17 02:34:49;;;;;;;3.58;1.33;;;;;;;;;;4373634;32;415831;-83
2023/06/17 02:37:17;;;;;;;1.80;1.33;;;;;;;;;;4387598;32;316723;-84
2023/06/17 02:39:44;;;;;;;4.28;1.80;;;;;;;;;;4376416;32;317005;-84
2023/06/17 02:42:12;;;;;;;4.82;1.50;;;;;;;;;;4388234;32;316744;-85
2023/06/17 02:44:39;;;;;;;7.70;1.62;;;;;;;;;;4377636;32;316680;-85
2023/06/17 02:47:08;;;;;;;4.15;1.58;;;;;;;;;;4385481;32;316835;-83
2023/06/17 02:49:36;;;;;;;4.03;1.52;;;;;;;;;;4382821;32;317027;-83
2023/06/17 02:52:04;;;;;;;4.72;1.70;;;;;;;;;;4387688;32;317237;-83
2023/06/17 02:54:32;;;;;;;2.05;1.10;;;;;;;;;;4377320;32;316925;-83
2023/06/17 02:56:59;;;;;;;2.53;1.25;;;;;;;;;;4387489;32;316906;-83
2023/06/17 02:59:27;;;;;;;5.90;1.92;;;;;;;;;;4375192;32;316826;-83
2023/06/17 03:01:54;;;;;;;4.10;1.83;;;;;;;;;;4387323;32;316716;-83
2023/06/17 03:04:23;;;;;;;9.02;1.85;;;;;;;;;;4376736;32;316904;-85
2023/06/17 03:06:52;;;;;;;7.82;1.27;;;;;;;;;;4385546;32;354828;-86
2023/06/17 03:09:20;;;;;;;10.15;1.58;;;;;;;;;;4375263;32;316861;-85
2023/06/17 03:11:47;;;;;;;6.22;1.73;;;;;;;;;;4387392;32;318011;-85
2023/06/17 03:14:19;;;;;;;7.50;1.92;;;;;;;;;;4372477;32;316672;-85
2023/06/17 03:16:47;;;;;;;2.25;1.30;;;;;;;;;;4386290;32;317045;-84
2023/06/17 03:19:14;;;;;;;10.15;1.90;;;;;;;;;;4376893;32;317035;-85
2023/06/17 03:21:43;;;;;;;3.92;1.62;;;;;;;;;;4386126;32;317598;-84
2023/06/17 03:24:12;;;;;;;4.45;1.23;;;;;;;;;;4387274;32;316649;-85
2023/06/17 03:26:39;;;;;;;5.25;1.73;;;;;;;;;;4374034;32;416345;-85
2023/06/17 03:29:06;;;;;;;2.75;1.62;;;;;;;;;;4386340;32;317011;-85
2023/06/17 03:31:35;;;;;;;7.10;1.67;;;;;;;;;;4376177;32;316889;-85
2023/06/17 03:34:02;;;;;;;11.57;2.20;;;;;;;;;;4387226;32;316713;-85
2023/06/17 03:36:30;;;;;;;3.70;2.00;;;;;;;;;;4375392;32;317923;-85
2023/06/17 03:38:58;;;;;;;6.45;2.17;;;;;;;;;;4392023;32;316602;-84
2023/06/17 03:41:27;;;;;;;5.75;1.77;;;;;;;;;;4381749;32;316857;-84
2023/06/17 03:43:54;;;;;;;3.72;2.10;;;;;;;;;;4396011;32;317086;-80
2023/06/17 03:46:22;;;;;;;7.85;2.00;;;;;;;;;;4389299;32;316545;-79
2023/06/17 03:48:49;;;;;;;4.65;1.52;;;;;;;;;;4392715;32;329578;-84
2023/06/17 03:51:17;;;;;;;6.82;1.70;;;;;;;;;;4374758;32;316962;-83
2023/06/17 03:53:45;;;;;;;8.18;2.25;;;;;;;;;;4384668;32;324313;-81
2023/06/17 03:56:13;;;;;;;4.28;3.33;;;;;;;;;;4375306;32;316825;-83
2023/06/17 03:58:42;;;;;;;11.88;4.43;;;;;;;;;;4385575;32;316756;-84
2023/06/17 04:01:12;;;;;;;7.97;5.60;;;;;;;;;;4386006;32;317910;-85
2023/06/17 04:03:40;;;;;;;8.00;5.93;;;;;;;;;;4373115;32;416237;-84
2023/06/17 04:06:08;;;;;;;8.63;5.53;;;;;;;;;;4384867;32;316972;-82
2023/06/17 04:08:36;;;;;;;4.82;3.65;;;;;;;;;;4376181;32;316819;-84
2023/06/17 04:11:03;;;;;;;6.50;3.65;;;;;;;;;;4385879;32;316869;-84
2023/06/17 04:13:31;;;;;;;10.27;3.40;;;;;;;;;;4376456;32;316877;-83
2023/06/17 04:16:00;;;;;;;6.90;3.45;;;;;;;;;;4385475;32;318024;-83
2023/06/17 04:18:28;;;;;;;5.37;2.97;;;;;;;;;;4376093;32;316895;-82
2023/06/17 04:20:56;;;;;;;4.75;2.75;;;;;;;;;;4385754;32;320701;-83
2023/06/17 04:23:24;;;;;;;3.80;2.30;;;;;;;;;;4374521;32;349558;-82
2023/06/17 04:25:53;;;;;;;5.85;2.40;;;;;;;;;;4385478;32;316903;-82
2023/06/17 04:28:20;;;;;;;6.93;2.10;;;;;;;;;;4375992;32;317512;-82
2023/06/17 04:30:47;;;;;;;6.28;3.72;;;;;;;;;;4384639;32;316736;-84
2023/06/17 04:33:16;;;;;;;10.60;8.57;;;;;;;;;;4376028;32;317029;-84
2023/06/17 04:35:44;;;;;;;15.52;8.80;;;;;;;;;;4385257;32;318130;-84
2023/06/17 04:38:12;;;;;;;9.02;4.90;;;;;;;;;;4374161;32;317979;-84
2023/06/17 04:40:39;;;;;;;5.30;3.33;;;;;;;;;;4385517;32;316797;-84
2023/06/17 04:43:07;;;;;;;7.95;2.80;;;;;;;;;;4385351;32;316862;-84
2023/06/17 04:45:35;;;;;;;3.37;2.28;;;;;;;;;;4375125;32;316891;-83
2023/06/17 04:48:06;;;;;;;5.07;2.10;;;;;;;;;;4385562;32;316819;-78
2023/06/17 04:50:35;;;;;;;5.78;2.30;;;;;;;;;;4374510;32;316823;-79
2023/06/17 04:53:04;;;;;;;3.92;2.42;;;;;;;;;;4384352;32;317069;-78
2023/06/17 04:55:35;;;;;;;3.62;2.40;;;;;;;;;;4373119;32;316963;-79
2023/06/17 04:58:03;;;;;;;3.78;2.00;;;;;;;;;;4385370;32;316678;-81
2023/06/17 05:00:30;;;;;;;7.22;2.20;;;;;;;;;;4376040;32;316739;-78
2023/06/17 05:02:58;;;;;;;3.83;2.08;;;;;;;;;;4388353;32;316825;-78
2023/06/17 05:05:25;;;;;;;5.85;2.33;;;;;;;;;;4378419;32;317485;-78
2023/06/17 05:07:54;;;;;;;3.58;2.47;;;;;;;;;;4386183;32;316646;-79
2023/06/17 05:10:21;;;;;;;4.30;2.33;;;;;;;;;;4377029;32;357591;-79
2023/06/17 05:12:49;;;;;;;4.45;1.85;;;;;;;;;;4388819;32;316779;-79
2023/06/17 05:15:16;;;;;;;4.43;2.30;;;;;;;;;;4378063;32;316891;-79
2023/06/17 05:17:43;;;;;;;3.35;1.95;;;;;;;;;;4385992;32;316646;-83
2023/06/17 05:20:11;;;;;;;4.15;1.87;;;;;;;;;;4380420;32;316908;-82
2023/06/17 05:22:39;;;;;;;4.22;2.25;;;;;;;;;;4387596;32;317092;-83
2023/06/17 05:25:08;;;;;;;2.35;1.90;;;;;;;;;;4387772;32;316892;-83
2023/06/17 05:27:37;;;;;;;1.85;1.65;;;;;;;;;;4375700;32;417112;-85
2023/06/17 05:30:08;;;;;;;7.43;2.62;;;;;;;;;;4385558;32;316934;-82
2023/06/17 05:32:35;;;;;;;4.82;1.95;;;;;;;;;;4368118;32;417655;-82
2023/06/17 05:35:03;;;;;;;2.10;1.85;;;;;;;;;;4394741;32;316696;-83
2023/06/17 05:37:31;;;;;;;3.10;1.73;;;;;;;;;;4378345;32;316724;-82
2023/06/17 05:39:59;;;;;;;4.72;2.33;;;;;;;;;;4387285;32;316673;-82
2023/06/17 05:42:28;;;;;;;7.93;3.15;;;;;;;;;;4378028;32;316707;-83
2023/06/17 05:44:55;;;;;;;5.25;2.92;;;;;;;;;;4387885;32;316747;-82
2023/06/17 05:47:23;;;;;;;4.60;2.67;;;;;;;;;;4378309;32;316815;-82
2023/06/17 05:49:50;;;;;;;5.45;2.75;;;;;;;;;;4387838;32;317063;-81
2023/06/17 05:52:18;;;;;;;6.55;2.58;;;;;;;;;;4375843;32;316976;-90
2023/06/17 05:54:45;;;;;;;2.87;2.15;;;;;;;;;;4388141;32;316715;-90
2023/06/17 05:57:12;;;;;;;7.28;2.78;;;;;;;;;;4376371;32;317377;-82
2023/06/17 05:59:41;;;;;;;5.32;2.60;;;;;;;;;;4386232;32;316792;-81
2023/06/17 06:02:08;;;;;;;7.20;3.72;;;;;;;;;;4387030;32;316491;-84
2023/06/17 06:04:36;;;;;;;7.87;3.67;;;;;;;;;;4375156;32;415687;-82
2023/06/17 06:07:03;;;;;;;5.85;2.55;;;;;;;;;;4388108;32;316522;-81
2023/06/17 06:09:30;;;;;;;8.43;2.12;;;;;;;;;;4375544;32;356618;-82
2023/06/17 06:11:58;;;;;;;4.28;2.58;;;;;;;;;;4385671;32;316691;-82
2023/06/17 06:14:25;;;;;;;4.22;2.28;;;;;;;;;;4376752;32;346887;-86
2023/06/17 06:16:54;;;;;;;3.53;1.90;;;;;;;;;;4386445;32;316897;-86
2023/06/17 06:19:22;;;;;;;2.17;1.65;;;;;;;;;;4376021;32;316620;-86
2023/06/17 06:21:49;;;;;;;2.85;1.55;;;;;;;;;;4387685;32;316770;-86
2023/06/17 06:24:16;;;;;;;1.77;1.37;;;;;;;;;;4377303;32;316884;-87
2023/06/17 06:26:44;;;;;;;3.10;1.70;;;;;;;;;;4386885;32;316685;-87
2023/06/17 06:29:13;;;;;;;5.53;1.10;;;;;;;;;;4376643;32;316862;-84
2023/06/17 06:31:42;;;;;;;5.37;1.65;;;;;;;;;;4387562;32;316714;-81
2023/06/17 06:34:11;;;;;;;4.05;1.83;;;;;;;;;;4387139;32;316571;-84
2023/06/17 06:36:39;;;;;;;4.30;1.35;;;;;;;;;;4374067;32;416379;-82
2023/06/17 06:39:06;;;;;;;4.18;1.80;;;;;;;;;;4387523;32;316772;-84
2023/06/17 06:41:34;;;;;;;2.70;1.17;;;;;;;;;;4374738;32;325843;-84
2023/06/17 06:44:01;;;;;;;3.65;1.00;;;;;;;;;;4387003;32;317140;-85
2023/06/17 06:46:28;;;;;;;2.53;1.30;;;;;;;;;;4393680;27;317104;-96
2023/06/17 06:48:55;;;;;;;6.60;1.75;;;;;;;;;;4418552;32;315212;-96
2023/06/17 06:51:24;;;;;;;1.50;1.30;;;;;;;;;;4409430;32;316271;-96
2023/06/17 06:53:51;;;;;;;3.10;1.45;;;;;;;;;;4421742;32;316229;-96
2023/06/17 06:56:19;;;;;;;2.22;1.15;;;;;;;;;;4418836;32;316142;-96
2023/06/17 06:58:47;;;;;;;3.17;0.80;;;;;;;;;;4438288;32;316116;-96
2023/06/17 07:01:14;;;;;;;3.28;0.80;;;;;;;;;;4426353;32;316132;-96
2023/06/17 07:03:42;;;;;;;2.15;0.90;;;;;;;;;;4409352;32;316361;-96
2023/06/17 07:06:10;;;;;;;1.62;0.90;;;;;;;;;;4398042;32;316095;-96
2023/06/17 07:08:38;;;;;;;3.90;1.00;;;;;;;;;;4391247;32;417757;-96
2023/06/17 07:11:05;;;;;;;0.98;0.73;;;;;;;;;;4409876;32;316327;-96
2023/06/17 07:13:33;;;;;;;0.55;0.55;;;;;;;;;;4394643;32;335514;-96
2023/06/17 07:16:00;;;;;;;0.73;0.70;;;;;;;;;;4402440;32;315951;-96
2023/06/17 07:18:29;;;;;;;2.25;0.60;;;;;;;;;;4401123;32;316322;-96
2023/06/17 07:20:57;;;;;;;0.60;0.60;;;;;;;;;;4405120;32;316377;-96
2023/06/17 07:23:27;;;;;;;0.50;0.50;;;;;;;;;;4391335;32;332126;-96
2023/06/17 07:25:55;;;;;;;1.20;0.62;;;;;;;;;;4404105;32;316266;-96
2023/06/17 07:28:23;;;;;;;0.57;0.57;;;;;;;;;;4394215;32;316348;-96
2023/06/17 07:30:52;;;;;;;8.70;1.52;;;;;;;;;;4403118;32;315733;-96
2023/06/17 07:33:19;;;;;;;0.68;0.50;;;;;;;;;;4411790;32;316197;-96
2023/06/17 07:35:46;;;;;;;0.60;0.60;;;;;;;;;;4421827;32;316331;-96
2023/06/17 07:38:13;;;;;;;0.47;0.47;;;;;;;;;;4403510;32;316364;-96
2023/06/17 07:40:42;;;;;;;1.10;0.60;;;;;;;;;;4404351;32;316292;-96
2023/06/17 07:43:13;;;;;;;1.42;0.90;;;;;;;;;;4405449;32;316325;-96
2023/06/17 07:45:45;;;;;;;0.98;0.62;;;;;;;;;;4410144;32;419602;-97
2023/06/17 07:48:12;;;;;;;0.57;0.57;;;;;;;;;;4409501;32;316107;-96
2023/06/17 07:50:41;;;;;;;2.97;0.60;;;;;;;;;;4420574;32;315903;-96
2023/06/17 07:53:08;;;;;;;3.05;0.60;;;;;;;;;;4421741;32;315082;-96
2023/06/17 07:55:39;;;;;;;0.52;0.52;;;;;;;;;;4402785;32;419365;-96
2023/06/17 07:58:08;;;;;;;2.33;0.60;;;;;;;;;;4411506;32;316028;-96
2023/06/17 08:00:52;;;;;;;1.20;0.70;;;;;;;;;;4411842;27;407990;-85
2023/06/17 08:03:20;;;;;;;1.48;0.80;;;;;;;;;;4396906;32;316530;-84
2023/06/17 08:05:48;;;;;;;1.40;0.60;;;;;;;;;;4409451;32;316474;-83
2023/06/17 08:08:15;;;;;;;0.65;0.50;;;;;;;;;;4399051;32;316397;-84
2023/06/17 08:10:43;;;;;;;0.85;0.60;;;;;;;;;;4414099;32;316294;-82
2023/06/17 08:13:10;;;;;;;1.77;0.90;;;;;;;;;;4410789;32;316663;-85
2023/06/17 08:15:38;;;;;;;3.17;0.70;;;;;;;;;;4387964;32;416088;-85
2023/06/17 08:18:07;;;;;;;0.85;0.70;;;;;;;;;;4400644;32;316933;-84
2023/06/17 08:20:36;;;;;;;1.58;0.60;;;;;;;;;;4389651;32;317115;-84
2023/06/17 08:23:04;;;;;;;0.52;0.52;;;;;;;;;;4398296;32;350038;-82
2023/06/17 08:25:32;;;;;;;1.98;0.73;;;;;;;;;;4390033;32;316840;-85
2023/06/17 08:28:00;;;;;;;0.52;0.50;;;;;;;;;;4399602;32;316545;-85
2023/06/17 08:30:27;;;;;;;0.52;0.40;;;;;;;;;;4391244;32;316748;-84
2023/06/17 08:32:55;;;;;;;1.77;0.70;;;;;;;;;;4400255;32;316872;-83
2023/06/17 08:35:24;;;;;;;3.55;0.70;;;;;;;;;;4391352;32;316616;-84
2023/06/17 08:37:51;;;;;;;3.20;0.60;;;;;;;;;;4402193;32;316682;-83
2023/06/17 08:40:21;;;;;;;1.90;0.80;;;;;;;;;;4393855;32;316768;-80
2023/06/17 08:42:54;;;;;;;1.15;0.85;;;;;;;;;;4403732;32;316897;-83
2023/06/17 08:45:23;;;;;;;1.15;0.60;;;;;;;;;;4391928;32;351148;-83
2023/06/17 08:47:50;;;;;;;0.80;0.70;;;;;;;;;;4408974;32;316379;-89
2023/06/17 08:50:19;;;;;;;1.90;0.90;;;;;;;;;;4396303;32;316442;-92
2023/06/17 08:52:48;;;;;;;0.60;0.55;;;;;;;;;;4410830;32;316575;-91
2023/06/17 08:55:17;;;;;;;3.60;1.05;;;;;;;;;;4396309;32;320379;-88
2023/06/17 08:57:45;;;;;;;2.33;0.77;;;;;;;;;;4403608;32;316830;-86
2023/06/17 09:00:13;;;;;;;2.33;0.60;;;;;;;;;;4394240;32;316863;-88
2023/06/17 09:02:44;;;;;;;0.62;0.50;;;;;;;;;;4402830;32;316370;-82
2023/06/17 09:05:12;;;;;;;0.85;0.70;;;;;;;;;;4393877;32;316580;-83
2023/06/17 09:07:39;;;;;;;0.95;0.52;;;;;;;;;;4401399;32;316556;-82
2023/06/17 09:10:09;;;;;;;1.25;0.68;;;;;;;;;;4403932;32;316382;-84
2023/06/17 09:12:38;;;;;;;1.77;0.70;;;;;;;;;;4393749;32;316529;-83
2023/06/17 09:15:07;;;;;;;1.83;0.90;;;;;;;;;;4402882;32;346560;-84
2023/06/17 09:17:37;;;;;;;1.33;0.85;;;;;;;;;;4390742;32;317016;-84
2023/06/17 09:20:10;;;;;;;1.95;0.60;;;;;;;;;;4403525;32;316626;-84
2023/06/17 09:22:40;;;;;;;5.18;0.90;;;;;;;;;;4387215;32;415770;-84
2023/06/17 09:25:15;;;;;;;2.58;0.80;;;;;;;;;;4393048;32;316912;-83
2023/06/17 09:27:46;;;;;;;1.25;0.80;;;;;;;;;;4401934;32;316889;-81
2023/06/17 09:30:15;;;;;;;2.70;0.75;;;;;;;;;;4390386;32;416098;-82
2023/06/17 09:32:44;;;;;;;2.58;0.60;;;;;;;;;;4403487;32;316863;-82
2023/06/17 09:35:15;;;;;;;3.58;0.90;;;;;;;;;;4389705;32;386048;-83
2023/06/17 09:37:49;;;;;;;2.15;0.93;;;;;;;;;;4403194;32;316705;-84
2023/06/17 09:40:19;;;;;;;6.37;0.80;;;;;;;;;;4392943;32;416273;-83
2023/06/17 09:42:50;;;;;;;1.52;0.80;;;;;;;;;;4393219;32;375622;-84
2023/06/17 09:45:24;;;;;;;1.42;0.80;;;;;;;;;;4403877;32;331969;-83
2023/06/17 09:47:53;;;;;;;4.67;0.90;;;;;;;;;;4391291;32;316374;-83
2023/06/17 09:50:23;;;;;;;1.15;0.80;;;;;;;;;;4404278;32;316782;-84
2023/06/17 09:52:54;;;;;;;1.83;1.27;;;;;;;;;;4390363;32;317057;-83
2023/06/17 09:55:24;;;;;;;0.93;0.70;;;;;;;;;;4404723;32;321829;-83
2023/06/17 09:57:53;;;;;;;2.83;1.37;;;;;;;;;;4388521;32;316704;-83
2023/06/17 10:00:23;;;;;;;0.68;0.65;;;;;;;;;;4401737;32;316897;-82
2023/06/17 10:02:53;;;;;;;1.23;0.82;;;;;;;;;;4390715;32;317186;-82
2023/06/17 10:05:23;;;;;;;1.55;0.80;;;;;;;;;;4402762;32;316892;-82
2023/06/17 10:07:54;;;;;;;1.00;0.60;;;;;;;;;;4389153;32;317087;-82
2023/06/17 10:10:24;;;;;;;1.00;0.70;;;;;;;;;;4402264;32;316924;-82
2023/06/17 10:12:54;;;;;;;1.17;0.80;;;;;;;;;;4392033;32;316878;-82
2023/06/17 10:15:23;;;;;;;0.95;0.70;;;;;;;;;;4401357;32;316717;-82
2023/06/17 10:17:52;;;;;;;0.93;0.70;;;;;;;;;;4390239;32;316704;-83
2023/06/17 10:20:22;;;;;;;2.72;0.60;;;;;;;;;;4402472;32;316881;-83
2023/06/17 10:22:54;;;;;;;2.15;0.60;;;;;;;;;;4390745;32;317227;-83
2023/06/17 10:25:24;;;;;;;3.83;0.90;;;;;;;;;;4401780;32;320678;-83
2023/06/17 10:27:52;;;;;;;1.33;0.93;;;;;;;;;;4391433;32;316984;-82
2023/06/17 10:30:26;;;;;;;1.75;0.90;;;;;;;;;;4401126;32;316931;-82
2023/06/17 10:32:56;;;;;;;1.42;0.77;;;;;;;;;;4389369;32;316700;-83
2023/06/17 10:35:24;;;;;;;0.57;0.57;;;;;;;;;;4400673;32;316607;-82
2023/06/17 10:37:52;;;;;;;1.52;1.02;;;;;;;;;;4391522;32;316763;-83
2023/06/17 10:40:23;;;;;;;1.50;0.77;;;;;;;;;;4402102;32;317014;-82
2023/06/17 10:42:58;;;;;;;0.80;0.60;;;;;;;;;;4392168;32;316776;-83
2023/06/17 10:45:28;;;;;;;1.12;1.00;;;;;;;;;;4401436;32;316982;-83
2023/06/17 10:48:17;;;;;;;3.83;0.73;;;;;;;;;;4391136;32;316776;-81
2023/06/17 10:50:46;;;;;;;0.80;0.80;;;;;;;;;;4401934;32;316613;-81
2023/06/17 10:53:16;;;;;;;1.95;1.00;;;;;;;;;;4388709;32;416182;-82
2023/06/17 10:55:46;;;;;;;0.50;0.47;;;;;;;;;;4401574;32;316740;-82
2023/06/17 10:58:13;;;;;;;1.17;0.60;;;;;;;;;;4388189;32;419487;-81
2023/06/17 11:00:41;;;;;;;2.15;0.60;;;;;;;;;;4401468;32;317041;-84
2023/06/17 11:03:10;;;;;;;2.65;0.70;;;;;;;;;;4392064;32;316638;-81
2023/06/17 11:05:37;;;;;;;1.27;0.80;;;;;;;;;;4402203;32;316752;-82
2023/06/17 11:08:06;;;;;;;2.08;0.90;;;;;;;;;;4390184;32;316863;-82
2023/06/17 11:10:33;;;;;;;3.70;0.60;;;;;;;;;;4401607;32;316781;-81
2023/06/17 11:13:02;;;;;;;2.75;1.20;;;;;;;;;;4389806;32;351671;-81
2023/06/17 11:15:30;;;;;;;1.23;0.77;;;;;;;;;;4402388;32;316752;-81
2023/06/17 11:18:01;;;;;;;2.60;0.88;;;;;;;;;;4390199;32;316653;-81
2023/06/17 11:20:31;;;;;;;1.73;0.70;;;;;;;;;;4400869;32;322378;-81
2023/06/17 11:22:58;;;;;;;0.50;0.50;;;;;;;;;;4389734;32;348516;-81
2023/06/17 11:25:26;;;;;;;0.93;0.80;;;;;;;;;;4400013;32;316944;-81
2023/06/17 11:27:54;;;;;;;0.75;0.65;;;;;;;;;;4391262;32;317037;-81
2023/06/17 11:30:25;;;;;;;0.90;0.90;;;;;;;;;;4401739;32;316701;-81
2023/06/17 11:32:52;;;;;;;0.80;0.80;;;;;;;;;;4391821;32;316891;-81
2023/06/17 11:35:21;;;;;;;0.70;0.70;;;;;;;;;;4401154;32;316796;-80
2023/06/17 11:37:51;;;;;;;3.12;0.70;;;;;;;;;;4386138;32;317054;-81
2023/06/17 11:40:18;;;;;;;1.02;0.73;;;;;;;;;;4401925;32;316560;-81
2023/06/17 11:42:47;;;;;;;1.17;0.88;;;;;;;;;;4401006;32;317039;-84
2023/06/17 11:45:15;;;;;;;0.80;0.80;;;;;;;;;;4387999;32;419055;-81
2023/06/17 11:47:44;;;;;;;0.60;0.60;;;;;;;;;;4401627;32;316723;-81
2023/06/17 11:50:12;;;;;;;2.67;0.80;;;;;;;;;;4388173;32;416753;-81
2023/06/17 11:52:39;;;;;;;0.98;0.80;;;;;;;;;;4401792;32;316819;-81
2023/06/17 11:55:14;;;;;;;1.23;0.80;;;;;;;;;;4390240;32;316675;-81
2023/06/17 11:57:44;;;;;;;5.22;1.25;;;;;;;;;;4400496;32;316824;-81
2023/06/17 12:00:14;;;;;;;1.75;1.02;;;;;;;;;;4387589;32;415854;-81
2023/06/17 12:02:43;;;;;;;4.35;0.93;;;;;;;;;;4400616;32;356742;-81
2023/06/17 12:05:11;;;;;;;0.95;0.80;;;;;;;;;;4390885;32;316834;-81
2023/06/17 12:07:40;;;;;;;1.37;0.90;;;;;;;;;;4401318;32;316770;-82
2023/06/17 12:10:08;;;;;;;2.58;1.10;;;;;;;;;;4391005;32;316908;-82
2023/06/17 12:12:37;;;;;;;10.00;1.40;;;;;;;;;;4400395;32;317028;-82
2023/06/17 12:15:06;;;;;;;1.47;0.77;;;;;;;;;;4387197;32;326784;-83
2023/06/17 12:17:42;;;;;;;4.70;1.00;;;;;;;;;;4398347;32;341458;-83
2023/06/17 12:20:15;;;;;;;1.50;1.15;;;;;;;;;;4390077;32;316635;-83
2023/06/17 12:22:43;;;;;;;1.92;1.17;;;;;;;;;;4399937;32;316689;-82
2023/06/17 12:25:12;;;;;;;4.68;0.75;;;;;;;;;;4390477;32;316789;-82
2023/06/17 12:27:40;;;;;;;3.22;0.90;;;;;;;;;;4398443;32;316767;-84
2023/06/17 12:30:09;;;;;;;3.22;0.85;;;;;;;;;;4391291;32;316651;-83
2023/06/17 12:32:38;;;;;;;4.18;0.80;;;;;;;;;;4412548;32;316212;-84
2023/06/17 12:35:06;;;;;;;2.65;1.25;;;;;;;;;;4402589;32;316596;-84
2023/06/17 12:37:38;;;;;;;1.95;1.10;;;;;;;;;;4409726;32;316571;-83
2023/06/17 12:40:06;;;;;;;0.77;0.75;;;;;;;;;;4399650;32;316554;-83
2023/06/17 12:42:34;;;;;;;1.95;1.02;;;;;;;;;;4405487;32;316533;-86
2023/06/17 12:45:02;;;;;;;9.00;2.47;;;;;;;;;;4389463;32;316854;-83
2023/06/17 12:47:30;;;;;;;1.25;0.60;;;;;;;;;;4399138;32;336978;-83
2023/06/17 12:49:58;;;;;;;1.30;0.80;;;;;;;;;;4388704;32;316720;-84
2023/06/17 12:52:26;;;;;;;1.48;0.93;;;;;;;;;;4400617;32;316622;-85
2023/06/17 12:55:00;;;;;;;1.45;0.85;;;;;;;;;;4389425;32;316787;-86
2023/06/17 12:57:27;;;;;;;1.85;0.82;;;;;;;;;;4401268;32;316779;-93
2023/06/17 12:59:55;;;;;;;4.50;0.80;;;;;;;;;;4390012;32;317189;-93
2023/06/17 13:02:23;;;;;;;1.62;1.00;;;;;;;;;;4399808;32;316661;-90
2023/06/17 13:04:50;;;;;;;3.90;0.80;;;;;;;;;;4390020;32;316711;-89
2023/06/17 13:07:19;;;;;;;0.60;0.60;;;;;;;;;;4399862;32;316649;-93
2023/06/17 13:09:47;;;;;;;0.82;0.73;;;;;;;;;;4390498;32;316851;-87
2023/06/17 13:12:16;;;;;;;1.00;0.90;;;;;;;;;;4400376;32;316425;-91
2023/06/17 13:14:43;;;;;;;0.70;0.70;;;;;;;;;;4400352;32;317030;-86
2023/06/17 13:17:11;;;;;;;0.98;0.77;;;;;;;;;;4389304;32;316740;-86
2023/06/17 13:19:40;;;;;;;2.47;0.70;;;;;;;;;;4400674;32;317040;-83
2023/06/17 13:22:08;;;;;;;1.40;0.80;;;;;;;;;;4392489;32;316709;-83
2023/06/17 13:24:36;;;;;;;1.35;0.73;;;;;;;;;;4403681;32;316785;-87
2023/06/17 13:27:03;;;;;;;1.40;0.70;;;;;;;;;;4391762;32;316684;-86
2023/06/17 13:29:32;;;;;;;1.00;0.90;;;;;;;;;;4401895;32;315544;-84
2023/06/17 13:32:00;;;;;;;1.20;0.70;;;;;;;;;;4384240;32;329023;-85
2023/06/17 13:34:27;;;;;;;2.30;0.65;;;;;;;;;;4402088;32;317027;-85
2023/06/17 13:36:55;;;;;;;1.00;0.70;;;;;;;;;;4392068;32;316728;-85
2023/06/17 13:39:22;;;;;;;1.40;1.00;;;;;;;;;;4401467;32;316679;-85
2023/06/17 13:41:50;;;;;;;1.23;1.12;;;;;;;;;;4392118;32;329004;-81
2023/06/17 13:44:17;;;;;;;2.45;0.70;;;;;;;;;;4402725;32;316719;-86
2023/06/17 13:46:47;;;;;;;1.55;0.80;;;;;;;;;;4402576;32;316190;-87
2023/06/17 13:49:15;;;;;;;2.62;0.70;;;;;;;;;;4389700;32;416242;-87
2023/06/17 13:51:42;;;;;;;0.70;0.70;;;;;;;;;;4400406;32;316644;-89
2023/06/17 13:54:10;;;;;;;1.73;1.25;;;;;;;;;;4392277;32;317117;-88
2023/06/17 13:56:37;;;;;;;1.02;0.93;;;;;;;;;;4402827;32;316908;-88
2023/06/17 13:59:05;;;;;;;4.75;0.60;;;;;;;;;;4391916;32;316458;-82
2023/06/17 14:01:32;;;;;;;0.93;0.80;;;;;;;;;;4402669;32;316437;-82
2023/06/17 14:04:01;;;;;;;1.67;0.80;;;;;;;;;;4384330;32;321284;-84
2023/06/17 14:06:31;;;;;;;2.12;0.90;;;;;;;;;;4400538;32;323644;-82
2023/06/17 14:08:58;;;;;;;0.68;0.65;;;;;;;;;;4392402;32;316961;-83
2023/06/17 14:11:26;;;;;;;5.62;0.80;;;;;;;;;;4399885;32;316795;-86
2023/06/17 14:13:54;;;;;;;1.45;0.85;;;;;;;;;;4391437;32;316819;-82
2023/06/17 14:16:21;;;;;;;4.45;0.95;;;;;;;;;;4402688;32;316774;-81
2023/06/17 14:18:49;;;;;;;1.65;0.82;;;;;;;;;;4391101;32;316877;-82
2023/06/17 14:21:30;;;;;;;0.80;0.80;;;;;;;;;;4401460;32;316835;-82
2023/06/17 14:24:05;;;;;;;0.88;0.85;;;;;;;;;;4391431;32;316736;-81
2023/06/17 14:26:33;;;;;;;1.00;0.73;;;;;;;;;;4400694;32;316599;-80
2023/06/17 14:29:01;;;;;;;1.80;0.90;;;;;;;;;;4393462;32;316774;-80
2023/06/17 14:31:28;;;;;;;2.10;0.70;;;;;;;;;;4404162;32;316715;-81
2023/06/17 14:33:57;;;;;;;0.82;0.80;;;;;;;;;;4390532;32;335870;-81
2023/06/17 14:36:25;;;;;;;3.40;0.80;;;;;;;;;;4402186;32;316891;-83